Time;durP1;ratioP1;P1;durP2;ratioP2;P2;SDS_P1;SDS_P2;PMS_P1;PMS_P2;Temp;Humidity;BMP_temperature;BMP_pressure;BME280_temperature;BME280_humidity;BME280_pressure;Samples;Min_cycle;Max_cycle;Signal;HPM_P1;HPM_P2
2023/01/05 00:01:47;;;;;;;11.63;2.77;;;18.30;79.80;;;;;;4987547;28;20483;-75
2023/01/05 00:04:15;;;;;;;6.03;2.70;;;18.30;79.90;;;;;;4986595;28;20564;-75
2023/01/05 00:06:43;;;;;;;5.47;2.70;;;18.30;79.90;;;;;;4986620;28;20492;-74
2023/01/05 00:09:12;;;;;;;9.50;2.93;;;18.30;79.90;;;;;;4985001;28;20456;-74
2023/01/05 00:22:47;;;;;;;7.13;3.10;;;18.20;79.80;;;;;;4993862;28;20448;-74
2023/01/05 00:25:16;;;;;;;6.90;3.00;;;18.20;79.90;;;;;;4988849;28;20461;-74
2023/01/05 00:27:46;;;;;;;3.33;2.47;;;18.20;79.80;;;;;;4990535;28;20990;-76
2023/01/05 00:30:15;;;;;;;7.50;2.83;;;18.20;79.80;;;;;;4991390;28;20988;-76
2023/01/05 00:32:45;;;;;;;9.40;2.80;;;18.30;79.70;;;;;;4992625;28;20480;-76
2023/01/05 00:35:13;;;;;;;8.00;2.87;;;18.20;79.70;;;;;;4992070;28;20468;-74
2023/01/05 00:37:41;;;;;;;7.47;2.87;;;18.30;80.40;;;;;;4983814;28;20481;-74
2023/01/05 00:40:10;;;;;;;3.77;2.73;;;18.20;79.60;;;;;;4988135;28;20489;-74
2023/01/05 00:42:38;;;;;;;6.97;3.03;;;18.30;79.60;;;;;;4987516;28;20453;-74
2023/01/05 00:45:07;;;;;;;8.30;2.80;;;18.30;79.70;;;;;;4987707;28;20459;-74
2023/01/05 00:47:36;;;;;;;6.20;2.87;;;18.20;79.60;;;;;;4986247;28;20450;-74
2023/01/05 00:50:06;;;;;;;6.63;2.93;;;18.20;79.60;;;;;;4984920;28;20460;-73
2023/01/05 00:52:34;;;;;;;6.77;2.77;;;18.20;79.60;;;;;;4987046;28;20478;-74
2023/01/05 00:55:02;;;;;;;8.20;3.30;;;18.20;79.70;;;;;;4985794;28;20453;-74
2023/01/05 00:57:30;;;;;;;6.77;3.20;;;18.20;79.60;;;;;;4990939;28;20461;-74
2023/01/05 01:00:00;;;;;;;7.60;3.17;;;18.20;79.40;;;;;;4986097;28;20481;-74
2023/01/05 01:02:29;;;;;;;7.20;3.00;;;18.20;79.40;;;;;;4988895;28;20541;-73
2023/01/05 01:04:57;;;;;;;9.77;3.30;;;18.20;79.40;;;;;;4992654;28;20556;-74
2023/01/05 01:07:26;;;;;;;14.93;7.13;;;18.20;79.40;;;;;;4981588;28;20469;-75
2023/01/05 01:09:54;;;;;;;11.33;5.80;;;18.20;79.40;;;;;;4987692;28;20481;-74
2023/01/05 01:12:22;;;;;;;10.60;5.10;;;18.20;79.20;;;;;;4985380;28;20453;-74
2023/01/05 01:14:51;;;;;;;12.23;5.03;;;18.30;79.40;;;;;;4984561;28;20462;-74
2023/01/05 01:17:18;;;;;;;11.87;4.80;;;18.20;79.10;;;;;;4986632;28;20557;-74
2023/01/05 01:19:46;;;;;;;11.60;4.53;;;18.20;79.20;;;;;;4987085;28;20536;-75
2023/01/05 01:22:14;;;;;;;8.57;4.30;;;18.20;79.20;;;;;;4984089;28;20453;-75
2023/01/05 01:24:44;;;;;;;8.90;4.10;;;18.20;79.10;;;;;;4985698;28;20487;-75
2023/01/05 01:27:11;;;;;;;6.50;3.97;;;18.20;79.20;;;;;;4984139;28;20461;-74
2023/01/05 01:29:39;;;;;;;10.13;4.77;;;18.20;79.20;;;;;;4986439;28;20453;-74
2023/01/05 01:32:07;;;;;;;8.97;3.90;;;18.20;79.10;;;;;;4987491;28;20449;-74
2023/01/05 01:34:35;;;;;;;6.23;3.80;;;18.20;79.10;;;;;;4985945;28;20465;-75
2023/01/05 01:37:03;;;;;;;8.13;3.77;;;18.30;79.10;;;;;;4981899;28;20482;-74
2023/01/05 01:39:31;;;;;;;7.40;3.70;;;18.20;79.00;;;;;;4988191;28;20461;-75
2023/01/05 01:42:01;;;;;;;7.17;4.43;;;18.20;79.00;;;;;;4988974;28;20464;-75
2023/01/05 01:44:49;;;;;;;6.50;3.60;;;18.20;79.00;;;;;;4985553;28;20457;-75
2023/01/05 01:47:21;;;;;;;8.67;4.00;;;18.20;78.80;;;;;;4987929;28;20453;-75
2023/01/05 01:49:49;;;;;;;8.70;3.53;;;18.20;78.90;;;;;;4982655;28;20454;-75
2023/01/05 01:52:17;;;;;;;7.90;3.33;;;18.30;79.00;;;;;;4987721;28;20477;-74
2023/01/05 01:54:45;;;;;;;8.17;3.40;;;18.30;78.90;;;;;;4989890;28;20480;-75
2023/01/05 01:57:15;;;;;;;10.27;3.87;;;18.20;78.90;;;;;;4986370;28;20461;-75
2023/01/05 01:59:42;;;;;;;8.90;3.60;;;18.30;79.00;;;;;;4987617;28;20445;-75
2023/01/05 02:02:11;;;;;;;5.40;3.50;;;18.30;78.80;;;;;;4987236;28;20457;-75
2023/01/05 02:04:39;;;;;;;6.20;3.70;;;18.30;78.70;;;;;;4989877;28;20464;-75
2023/01/05 02:07:07;;;;;;;4.73;3.40;;;18.30;78.80;;;;;;4990628;28;20537;-75
2023/01/05 02:09:35;;;;;;;5.57;3.40;;;18.30;78.70;;;;;;4983103;28;20453;-75
2023/01/05 02:12:06;;;;;;;3.80;3.07;;;18.30;78.80;;;;;;4987855;28;20461;-75
2023/01/05 02:14:40;;;;;;;6.50;3.67;;;18.30;78.70;;;;;;4986105;28;20454;-75
2023/01/05 02:17:15;;;;;;;9.50;3.33;;;18.30;78.60;;;;;;4983029;28;20493;-75
2023/01/05 02:20:14;;;;;;;7.63;3.63;;;18.30;78.70;;;;;;4988019;28;20461;-75
2023/01/05 02:22:56;;;;;;;7.90;3.63;;;18.30;78.60;;;;;;4984448;28;20460;-74
2023/01/05 02:25:39;;;;;;;7.67;3.37;;;18.30;78.60;;;;;;4989720;28;20454;-75
2023/01/05 02:28:14;;;;;;;5.70;2.90;;;18.30;78.60;;;;;;4982178;28;20507;-75
2023/01/05 02:31:00;;;;;;;6.03;3.50;;;18.30;78.70;;;;;;4986151;28;20475;-76
2023/01/05 02:33:33;;;;;;;4.77;2.90;;;18.30;78.50;;;;;;4982979;28;20453;-75
2023/01/05 02:36:03;;;;;;;5.63;2.97;;;18.30;78.60;;;;;;4986405;28;20460;-75
2023/01/05 02:38:34;;;;;;;8.93;3.30;;;18.30;78.70;;;;;;4983424;28;20971;-75
2023/01/05 02:41:05;;;;;;;6.50;2.77;;;18.30;78.70;;;;;;4989627;28;20983;-76
2023/01/05 02:43:37;;;;;;;7.77;3.67;;;18.30;78.70;;;;;;4987685;28;20461;-75
2023/01/05 02:46:06;;;;;;;12.70;3.50;;;18.30;78.50;;;;;;4982671;28;20457;-76
2023/01/05 02:48:34;;;;;;;7.03;3.40;;;18.30;78.70;;;;;;4988899;28;20456;-76
2023/01/05 02:51:03;;;;;;;4.40;3.07;;;18.30;78.50;;;;;;4985555;28;20496;-76
2023/01/05 02:53:32;;;;;;;4.63;3.23;;;18.30;78.50;;;;;;4985187;28;20449;-75
2023/01/05 02:56:02;;;;;;;6.30;3.50;;;18.30;78.30;;;;;;4989238;28;20453;-75
2023/01/05 02:58:32;;;;;;;3.93;2.93;;;18.30;78.40;;;;;;4987020;28;20459;-76
2023/01/05 03:01:02;;;;;;;8.33;3.20;;;18.30;78.50;;;;;;4986601;28;20569;-76
2023/01/05 03:03:32;;;;;;;8.67;3.20;;;18.30;78.50;;;;;;4988369;28;20523;-76
2023/01/05 03:06:03;;;;;;;7.10;3.23;;;18.30;78.30;;;;;;4988418;28;20458;-76
2023/01/05 03:08:31;;;;;;;4.90;3.07;;;18.30;78.30;;;;;;4984032;28;20452;-76
2023/01/05 03:13:48;;;;;;;7.47;3.10;;;18.30;78.30;;;;;;4983638;28;21024;-75
2023/01/05 03:16:20;;;;;;;7.40;3.77;;;18.30;78.40;;;;;;4984370;28;20468;-76
2023/01/05 03:35:31;;;;;;;4.70;3.27;;;18.30;78.40;;;;;;4986899;28;20457;-75
2023/01/05 03:38:03;;;;;;;8.77;3.53;;;18.30;78.40;;;;;;4992415;28;20453;-75
2023/01/05 03:40:32;;;;;;;7.27;3.20;;;18.30;78.30;;;;;;4982395;28;20487;-75
2023/01/05 03:43:00;;;;;;;7.37;3.30;;;18.30;78.20;;;;;;4992496;28;20441;-75
2023/01/05 03:45:35;;;;;;;7.13;3.47;;;18.20;78.10;;;;;;4984740;28;20509;-75
2023/01/05 03:48:02;;;;;;;7.43;3.43;;;18.30;78.10;;;;;;4992593;28;20459;-75
2023/01/05 03:50:31;;;;;;;8.27;3.53;;;18.30;78.10;;;;;;4992550;28;20483;-75
2023/01/05 03:52:59;;;;;;;7.53;3.30;;;18.30;78.20;;;;;;4989305;28;20456;-75
2023/01/05 03:55:27;;;;;;;9.27;3.63;;;18.30;78.10;;;;;;4992011;28;20437;-75
2023/01/05 03:57:55;;;;;;;5.27;3.27;;;18.30;78.10;;;;;;4991624;28;20449;-75
2023/01/05 04:00:23;;;;;;;6.33;3.53;;;18.30;78.00;;;;;;4992210;28;20473;-75
2023/01/05 04:02:51;;;;;;;7.83;3.47;;;18.30;78.10;;;;;;4983174;28;20492;-75
2023/01/05 04:05:19;;;;;;;11.37;3.60;;;18.30;78.10;;;;;;4987322;28;20504;-75
2023/01/05 04:07:48;;;;;;;9.70;4.03;;;18.30;78.00;;;;;;4992469;28;20464;-75
2023/01/05 04:10:16;;;;;;;9.03;3.70;;;18.30;77.90;;;;;;4985685;28;20477;-75
2023/01/05 04:12:45;;;;;;;8.70;3.73;;;18.30;77.90;;;;;;4989880;28;20456;-75
2023/01/05 04:15:12;;;;;;;12.13;3.80;;;18.20;77.70;;;;;;4986043;28;20476;-75
2023/01/05 04:17:40;;;;;;;8.40;3.83;;;18.30;78.00;;;;;;4984961;28;20454;-75
2023/01/05 04:20:09;;;;;;;8.00;2.97;;;18.30;78.10;;;;;;4985358;28;21252;-75
2023/01/05 04:22:37;;;;;;;7.63;3.90;;;18.20;77.80;;;;;;4988023;28;20485;-75
2023/01/05 04:25:07;;;;;;;5.70;3.37;;;18.20;77.80;;;;;;4982947;28;20453;-75
2023/01/05 04:27:35;;;;;;;7.20;3.70;;;18.30;77.70;;;;;;4987189;28;20461;-75
2023/01/05 04:30:03;;;;;;;7.40;4.00;;;18.20;77.80;;;;;;4991011;28;20484;-74
2023/01/05 04:32:31;;;;;;;7.60;4.00;;;18.30;77.70;;;;;;4987975;28;20459;-75
2023/01/05 04:34:59;;;;;;;7.53;4.17;;;18.20;77.60;;;;;;4991931;28;20458;-75
2023/01/05 04:37:37;;;;;;;11.60;4.00;;;18.20;78.40;;;;;;4990995;28;20538;-74
2023/01/05 04:40:08;;;;;;;8.37;3.90;;;18.30;77.80;;;;;;4990092;28;20484;-75
2023/01/05 04:42:36;;;;;;;6.43;3.40;;;18.20;77.70;;;;;;4990132;28;20473;-75
2023/01/05 04:45:04;;;;;;;8.83;3.70;;;18.20;77.60;;;;;;4988462;28;20457;-74
2023/01/05 04:47:33;;;;;;;15.30;4.40;;;18.20;77.70;;;;;;4991313;28;20466;-75
2023/01/05 04:50:00;;;;;;;11.03;4.30;;;18.20;77.70;;;;;;4990243;28;20476;-74
2023/01/05 04:52:29;;;;;;;8.70;4.20;;;18.20;77.80;;;;;;4991924;28;20441;-75
2023/01/05 04:54:57;;;;;;;7.63;4.33;;;18.20;77.80;;;;;;4987785;28;20509;-75
2023/01/05 04:57:27;;;;;;;9.33;3.90;;;18.20;77.80;;;;;;4993594;28;20807;-75
2023/01/05 04:59:54;;;;;;;9.67;4.10;;;18.20;77.60;;;;;;4991016;28;20462;-75
2023/01/05 05:02:23;;;;;;;6.63;4.30;;;18.20;78.00;;;;;;4992036;28;20476;-75
2023/01/05 05:04:50;;;;;;;6.77;3.50;;;18.10;77.90;;;;;;4994580;28;20495;-75
2023/01/05 05:07:18;;;;;;;8.73;3.83;;;18.10;77.90;;;;;;4993969;28;20452;-75
2023/01/05 05:09:46;;;;;;;13.30;4.30;;;18.20;78.00;;;;;;4999154;28;20448;-75
2023/01/05 05:12:14;;;;;;;7.97;4.10;;;18.20;77.80;;;;;;4988584;28;20460;-75
2023/01/05 05:14:44;;;;;;;6.23;3.73;;;18.20;77.80;;;;;;4989511;28;20465;-75
2023/01/05 05:17:11;;;;;;;6.27;3.70;;;18.20;77.80;;;;;;4990844;28;20445;-76
2023/01/05 05:19:40;;;;;;;6.87;3.80;;;18.20;77.80;;;;;;4984561;28;20462;-75
2023/01/05 05:22:08;;;;;;;8.57;4.47;;;18.20;77.90;;;;;;4994764;28;20479;-75
2023/01/05 05:24:36;;;;;;;5.83;3.67;;;18.10;77.70;;;;;;4991412;28;20487;-75
2023/01/05 05:27:04;;;;;;;6.00;4.00;;;18.20;77.80;;;;;;4990862;28;20461;-75
2023/01/05 05:29:32;;;;;;;10.60;4.30;;;18.10;77.60;;;;;;4989726;28;20480;-75
2023/01/05 05:32:02;;;;;;;10.93;4.50;;;18.10;77.80;;;;;;4989214;28;20476;-75
2023/01/05 05:34:29;;;;;;;8.87;3.97;;;18.10;77.60;;;;;;4988254;28;20461;-75
2023/01/05 05:36:57;;;;;;;15.00;4.10;;;18.10;77.50;;;;;;4991224;28;20446;-75
2023/01/05 05:39:25;;;;;;;7.70;4.13;;;18.20;77.70;;;;;;4990120;28;20457;-75
2023/01/05 05:41:53;;;;;;;6.20;3.87;;;18.20;77.80;;;;;;4994082;28;20469;-75
2023/01/05 05:44:21;;;;;;;5.47;3.80;;;18.10;77.60;;;;;;4989320;28;20928;-75
2023/01/05 05:46:49;;;;;;;5.63;4.10;;;18.10;77.50;;;;;;4989641;28;20460;-75
2023/01/05 05:49:19;;;;;;;6.77;3.43;;;18.20;77.70;;;;;;4992589;28;20457;-75
2023/01/05 05:51:46;;;;;;;7.00;3.67;;;18.20;77.50;;;;;;4990430;28;20496;-76
2023/01/05 05:54:14;;;;;;;9.87;4.00;;;18.10;77.60;;;;;;4990527;28;20457;-75
2023/01/05 05:56:43;;;;;;;14.20;4.33;;;18.10;77.60;;;;;;4991496;28;20461;-76
2023/01/05 05:59:10;;;;;;;7.00;3.90;;;18.20;77.70;;;;;;4989538;28;20450;-75
2023/01/05 06:01:38;;;;;;;8.73;3.90;;;18.10;77.60;;;;;;4988906;28;20481;-76
2023/01/05 06:04:06;;;;;;;8.90;3.70;;;18.10;77.40;;;;;;4988578;28;20461;-75
2023/01/05 06:06:37;;;;;;;10.90;5.10;;;18.10;77.40;;;;;;4987738;28;20440;-75
2023/01/05 06:09:05;;;;;;;8.60;4.53;;;18.10;77.50;;;;;;4990656;28;20462;-75
2023/01/05 06:11:33;;;;;;;8.30;3.70;;;18.10;77.50;;;;;;4989331;28;20505;-76
2023/01/05 06:14:03;;;;;;;6.97;3.73;;;18.20;77.60;;;;;;4990051;28;20449;-75
2023/01/05 06:16:31;;;;;;;7.57;3.90;;;18.10;77.50;;;;;;4988875;28;20461;-76
2023/01/05 06:18:59;;;;;;;6.67;3.70;;;18.10;77.30;;;;;;4986214;28;20464;-76
2023/01/05 06:21:27;;;;;;;6.40;3.53;;;18.20;77.50;;;;;;4994813;28;20475;-75
2023/01/05 06:23:57;;;;;;;8.70;4.17;;;18.10;77.40;;;;;;4989015;28;20492;-75
2023/01/05 06:26:24;;;;;;;8.70;4.00;;;18.10;77.40;;;;;;4987311;28;20453;-75
2023/01/05 06:28:53;;;;;;;10.37;3.67;;;18.20;77.40;;;;;;4990771;28;20449;-75
2023/01/05 06:31:20;;;;;;;6.87;3.67;;;18.20;77.40;;;;;;4990280;28;20476;-75
2023/01/05 06:33:48;;;;;;;10.87;4.30;;;18.20;77.50;;;;;;4988533;28;20449;-75
2023/01/05 06:36:16;;;;;;;7.27;4.07;;;18.20;77.50;;;;;;4987204;28;20457;-75
2023/01/05 06:38:44;;;;;;;7.93;4.07;;;18.20;77.50;;;;;;4990732;28;20453;-75
2023/01/05 06:41:13;;;;;;;9.50;3.90;;;18.20;77.60;;;;;;4986749;28;20481;-75
2023/01/05 06:43:41;;;;;;;7.47;3.80;;;18.20;77.50;;;;;;4987082;28;20477;-75
2023/01/05 06:46:09;;;;;;;7.63;3.93;;;18.20;77.40;;;;;;4985405;28;20963;-75
2023/01/05 06:48:37;;;;;;;6.33;3.97;;;18.10;77.30;;;;;;4988810;28;20485;-75
2023/01/05 06:51:05;;;;;;;8.83;3.90;;;18.20;77.50;;;;;;4990414;28;20484;-75
2023/01/05 06:53:33;;;;;;;8.10;4.07;;;18.10;77.30;;;;;;4987734;28;20457;-75
2023/01/05 06:56:01;;;;;;;8.50;3.70;;;18.10;77.40;;;;;;4990157;28;20457;-75
2023/01/05 06:58:30;;;;;;;11.00;4.17;;;18.10;77.30;;;;;;4989744;28;20460;-75
2023/01/05 07:00:59;;;;;;;8.90;3.63;;;18.10;77.50;;;;;;4987049;28;20485;-75
2023/01/05 07:03:27;;;;;;;6.83;3.30;;;18.20;77.50;;;;;;4988983;28;20492;-75
2023/01/05 07:05:55;;;;;;;6.43;3.80;;;18.10;77.30;;;;;;4988766;28;20527;-75
2023/01/05 07:08:23;;;;;;;5.17;3.07;;;18.10;77.30;;;;;;4987229;28;20944;-75
2023/01/05 07:10:51;;;;;;;6.70;3.73;;;18.10;77.30;;;;;;4990162;28;20476;-75
2023/01/05 07:13:19;;;;;;;9.17;3.93;;;18.10;77.30;;;;;;4990697;28;20441;-75
2023/01/05 07:15:48;;;;;;;7.30;3.70;;;18.10;77.30;;;;;;4988916;28;20454;-75
2023/01/05 07:18:16;;;;;;;7.40;3.80;;;18.10;77.40;;;;;;4990129;28;20449;-75
2023/01/05 07:20:44;;;;;;;6.53;3.50;;;18.10;77.30;;;;;;4988422;28;20474;-75
2023/01/05 07:23:12;;;;;;;9.93;4.00;;;18.10;77.50;;;;;;4983543;28;20553;-75
2023/01/05 07:25:40;;;;;;;5.50;3.47;;;18.10;77.50;;;;;;4986395;28;20457;-75
2023/01/05 07:28:07;;;;;;;7.27;4.00;;;18.10;77.30;;;;;;4985024;28;20453;-75
2023/01/05 07:30:35;;;;;;;4.47;3.33;;;18.10;77.40;;;;;;4988519;28;20480;-75
2023/01/05 07:33:05;;;;;;;5.57;3.47;;;18.10;77.60;;;;;;4990204;28;20449;-75
2023/01/05 07:35:32;;;;;;;5.10;3.30;;;18.10;77.40;;;;;;4990620;28;20743;-75
2023/01/05 07:38:01;;;;;;;5.53;3.77;;;18.00;77.40;;;;;;4990005;28;20461;-75
2023/01/05 07:40:29;;;;;;;6.47;3.10;;;18.10;77.50;;;;;;4988624;28;20483;-75
2023/01/05 07:42:57;;;;;;;6.50;3.73;;;18.10;77.50;;;;;;4987358;28;20480;-75
2023/01/05 07:45:25;;;;;;;3.43;2.80;;;18.10;77.30;;;;;;4987078;28;20453;-76
2023/01/05 07:47:53;;;;;;;6.80;3.20;;;18.10;77.50;;;;;;4982895;28;20511;-75
2023/01/05 07:50:23;;;;;;;6.77;3.50;;;18.10;77.50;;;;;;4987632;28;20478;-75
2023/01/05 07:52:51;;;;;;;7.67;3.40;;;18.00;77.30;;;;;;4991023;28;20453;-75
2023/01/05 07:55:19;;;;;;;4.90;3.17;;;18.10;77.50;;;;;;4988765;28;20457;-75
2023/01/05 07:57:47;;;;;;;4.73;3.10;;;18.00;77.30;;;;;;4988528;28;20461;-75
2023/01/05 08:00:15;;;;;;;3.80;3.00;;;18.10;77.30;;;;;;4992084;28;20469;-75
2023/01/05 08:02:44;;;;;;;4.70;3.00;;;18.00;77.30;;;;;;4995046;28;20468;-75
2023/01/05 08:05:13;;;;;;;5.10;3.07;;;18.00;77.20;;;;;;4993162;28;20544;-75
2023/01/05 08:07:42;;;;;;;4.37;2.70;;;18.00;77.20;;;;;;4990544;28;20468;-75
2023/01/05 08:10:28;;;;;;;3.50;2.90;;;18.00;77.30;;;;;;4994244;28;20469;-75
2023/01/05 08:15:47;;;;;;;7.37;3.40;;;18.00;77.30;;;;;;4990697;28;20456;-75
2023/01/05 08:18:18;;;;;;;5.17;2.97;;;17.90;77.30;;;;;;4993571;28;20453;-75
2023/01/05 08:20:51;;;;;;;4.90;3.43;;;17.90;77.20;;;;;;4993633;28;20516;-75
2023/01/05 08:23:20;;;;;;;5.83;3.07;;;17.90;77.10;;;;;;4994298;28;20481;-75
2023/01/05 08:25:53;;;;;;;4.03;3.03;;;17.90;77.10;;;;;;4990293;28;20544;-75
2023/01/05 08:28:20;;;;;;;4.63;2.87;;;17.90;77.10;;;;;;4991061;28;20534;-75
2023/01/05 08:30:49;;;;;;;4.83;3.00;;;17.90;77.00;;;;;;4988054;28;20485;-75
2023/01/05 08:33:17;;;;;;;4.33;2.73;;;17.90;76.90;;;;;;4993305;28;20461;-75
2023/01/05 08:35:45;;;;;;;5.20;3.00;;;17.90;76.80;;;;;;4992122;28;20457;-75
2023/01/05 08:38:13;;;;;;;5.30;2.70;;;17.90;76.80;;;;;;4992482;28;20453;-75
2023/01/05 08:40:42;;;;;;;8.00;4.00;;;17.90;76.60;;;;;;4990261;28;20491;-75
2023/01/05 08:43:10;;;;;;;5.17;3.20;;;17.90;76.90;;;;;;4992630;28;20479;-76
2023/01/05 08:45:38;;;;;;;4.53;3.27;;;17.90;76.80;;;;;;4991501;28;20457;-76
2023/01/05 08:48:08;;;;;;;3.13;2.60;;;18.00;76.90;;;;;;4992784;28;20452;-75
2023/01/05 08:50:37;;;;;;;3.73;3.07;;;18.00;76.80;;;;;;4992280;28;20480;-75
2023/01/05 08:53:05;;;;;;;5.10;2.70;;;18.10;76.70;;;;;;4993616;28;20457;-75
2023/01/05 08:55:33;;;;;;;4.03;2.80;;;18.20;76.90;;;;;;4998589;28;20449;-75
2023/01/05 08:58:05;;;;;;;3.90;2.67;;;18.20;76.90;;;;;;4994751;28;20462;-75
2023/01/05 09:00:33;;;;;;;4.83;3.30;;;18.30;76.70;;;;;;4989174;28;20831;-75
2023/01/05 09:03:01;;;;;;;3.77;2.87;;;18.40;76.50;;;;;;4996773;28;20461;-74
2023/01/05 09:05:29;;;;;;;2.90;2.60;;;18.40;76.80;;;;;;4991793;28;20462;-75
2023/01/05 09:07:57;;;;;;;3.70;2.80;;;18.60;76.80;;;;;;4991350;28;20467;-75
2023/01/05 09:10:25;;;;;;;5.73;3.33;;;18.70;77.10;;;;;;4991867;28;20488;-75
2023/01/05 09:12:53;;;;;;;5.63;2.70;;;18.80;77.20;;;;;;4992664;28;20453;-75
2023/01/05 09:15:22;;;;;;;5.23;2.63;;;18.90;77.20;;;;;;4991044;28;20545;-75
2023/01/05 09:17:50;;;;;;;4.70;2.93;;;18.90;77.20;;;;;;4991669;28;20469;-75
2023/01/05 09:20:19;;;;;;;6.50;3.40;;;19.00;77.50;;;;;;4992224;28;20472;-76
2023/01/05 09:22:46;;;;;;;6.10;3.13;;;19.00;77.50;;;;;;4991929;28;20453;-76
2023/01/05 09:25:15;;;;;;;3.67;2.87;;;19.10;77.30;;;;;;4992530;28;20477;-76
2023/01/05 09:27:42;;;;;;;2.60;2.40;;;19.00;76.90;;;;;;4993719;28;20461;-75
2023/01/05 09:30:14;;;;;;;3.27;2.53;;;19.10;77.10;;;;;;4990352;28;20484;-75
2023/01/05 09:32:43;;;;;;;3.07;2.20;;;19.10;77.30;;;;;;4992010;28;20544;-75
2023/01/05 09:35:11;;;;;;;3.33;2.80;;;19.20;77.40;;;;;;4990105;28;20449;-75
2023/01/05 09:37:39;;;;;;;3.00;2.63;;;19.20;77.40;;;;;;4993018;28;20457;-75
2023/01/05 09:40:09;;;;;;;3.10;2.40;;;19.20;77.00;;;;;;4990969;28;20469;-75
2023/01/05 09:42:36;;;;;;;4.20;2.83;;;19.20;77.20;;;;;;4991587;28;20453;-75
2023/01/05 09:45:06;;;;;;;4.93;2.90;;;19.20;77.10;;;;;;4991663;28;20553;-75
2023/01/05 09:47:35;;;;;;;2.67;2.47;;;19.20;77.00;;;;;;4981835;28;20486;-75
2023/01/05 09:50:07;;;;;;;4.20;2.87;;;19.10;76.90;;;;;;4979245;28;20469;-75
2023/01/05 09:52:34;;;;;;;4.00;2.60;;;19.10;76.90;;;;;;4988600;28;20476;-75
2023/01/05 09:55:10;;;;;;;8.47;2.87;;;19.10;76.90;;;;;;4990057;28;20449;-75
2023/01/05 09:57:38;;;;;;;2.63;2.43;;;19.20;76.90;;;;;;4986004;28;20462;-75
2023/01/05 10:00:07;;;;;;;5.27;2.53;;;19.10;76.70;;;;;;4985919;28;20477;-75
2023/01/05 10:02:42;;;;;;;5.10;3.03;;;19.20;76.80;;;;;;4985211;28;20454;-75
2023/01/05 10:05:12;;;;;;;3.90;2.73;;;19.40;77.20;;;;;;4988170;28;20489;-75
2023/01/05 10:07:42;;;;;;;3.07;2.50;;;19.40;76.80;;;;;;4987890;28;20462;-75
2023/01/05 10:10:17;;;;;;;3.70;2.63;;;19.40;76.60;;;;;;4989385;28;20492;-75
2023/01/05 10:13:05;;;;;;;2.80;2.10;;;19.40;76.70;;;;;;4983140;28;20449;-75
2023/01/05 10:15:39;;;;;;;3.17;2.27;;;19.40;76.60;;;;;;4985596;28;20453;-75
2023/01/05 10:18:12;;;;;;;5.00;2.80;;;19.60;77.50;;;;;;4984030;28;20457;-75
2023/01/05 10:20:54;;;;;;;5.20;2.70;;;19.80;77.80;;;;;;4987329;28;20484;-76
2023/01/05 10:23:37;;;;;;;3.93;2.67;;;20.00;78.10;;;;;;4993144;28;20453;-75
2023/01/05 10:26:09;;;;;;;3.47;2.63;;;20.30;78.20;;;;;;4998408;28;20469;-75
2023/01/05 10:28:40;;;;;;;5.40;2.60;;;20.50;78.10;;;;;;4993303;28;20437;-75
2023/01/05 10:31:12;;;;;;;3.20;2.70;;;20.70;78.10;;;;;;4988903;28;20453;-75
2023/01/05 10:33:46;;;;;;;2.47;2.27;;;21.00;78.00;;;;;;5013152;28;20519;-75
2023/01/05 10:36:31;;;;;;;2.37;2.17;;;21.20;77.90;;;;;;5012957;28;20420;-75
2023/01/05 10:39:23;;;;;;;3.67;2.77;;;21.50;77.70;;;;;;4998799;28;20500;-75
2023/01/05 10:41:57;;;;;;;4.07;2.50;;;21.70;77.20;;;;;;4990321;28;20491;-75
2023/01/05 10:44:39;;;;;;;2.87;2.23;;;21.90;76.80;;;;;;4990131;28;20461;-75
2023/01/05 10:47:08;;;;;;;2.40;2.20;;;22.00;75.80;;;;;;4990129;28;20464;-76
2023/01/05 10:49:36;;;;;;;3.63;2.77;;;22.00;75.90;;;;;;4985469;28;20454;-75
2023/01/05 10:52:06;;;;;;;2.57;2.37;;;21.90;75.10;;;;;;4986528;28;20462;-75
2023/01/05 10:54:37;;;;;;;2.70;2.47;;;21.80;75.10;;;;;;4984619;28;20452;-75
2023/01/05 10:57:36;;;;;;;3.60;2.83;;;21.70;74.90;;;;;;4983946;28;20436;-75
2023/01/05 11:00:13;;;;;;;3.53;2.50;;;21.70;74.90;;;;;;4984224;28;20497;-76
2023/01/05 11:02:42;;;;;;;5.00;2.80;;;21.60;75.10;;;;;;4993801;28;20463;-78
2023/01/05 11:05:32;;;;;;;3.53;2.13;;;21.50;75.10;;;;;;4992529;28;20477;-77
2023/01/05 11:08:02;;;;;;;3.10;2.43;;;21.50;75.10;;;;;;4989304;28;20456;-78
2023/01/05 11:10:31;;;;;;;4.37;2.80;;;21.60;75.60;;;;;;4993221;28;20531;-78
2023/01/05 11:13:02;;;;;;;3.93;2.63;;;21.60;75.60;;;;;;4997133;28;20424;-77
2023/01/05 11:15:31;;;;;;;3.57;2.60;;;21.70;75.30;;;;;;4995978;28;20417;-77
2023/01/05 11:17:59;;;;;;;3.80;2.60;;;21.80;75.20;;;;;;4995239;28;20461;-77
2023/01/05 11:20:27;;;;;;;5.10;2.50;;;21.80;74.70;;;;;;4994724;28;20452;-77
2023/01/05 11:22:55;;;;;;;3.20;2.67;;;21.80;74.90;;;;;;4996757;28;20457;-77
2023/01/05 11:25:27;;;;;;;5.50;2.80;;;22.10;75.70;;;;;;4992480;28;20473;-77
2023/01/05 11:28:16;;;;;;;2.93;2.60;;;22.30;75.30;;;;;;4997419;28;20461;-78
2023/01/05 11:30:55;;;;;;;3.40;2.80;;;22.40;74.10;;;;;;4989293;28;20477;-77
2023/01/05 11:33:24;;;;;;;2.90;2.53;;;22.50;73.90;;;;;;4984823;28;20421;-76
2023/01/05 11:35:52;;;;;;;6.93;2.70;;;22.50;73.20;;;;;;4988363;28;20477;-77
2023/01/05 11:38:22;;;;;;;2.70;2.50;;;22.40;72.90;;;;;;4999296;28;20456;-77
2023/01/05 11:40:52;;;;;;;3.67;2.73;;;22.40;72.90;;;;;;4995954;28;20476;-77
2023/01/05 11:43:20;;;;;;;2.60;2.40;;;22.30;72.80;;;;;;4995582;28;20464;-75
2023/01/05 11:45:50;;;;;;;5.73;3.03;;;22.30;72.70;;;;;;4999273;28;20483;-76
2023/01/05 11:48:19;;;;;;;3.00;2.70;;;22.20;73.10;;;;;;4999590;28;20464;-76
2023/01/05 11:50:49;;;;;;;6.20;3.23;;;22.30;72.90;;;;;;4994636;28;20451;-76
2023/01/05 11:53:25;;;;;;;3.87;2.67;;;22.30;73.50;;;;;;4995383;28;20455;-75
2023/01/05 11:56:01;;;;;;;4.67;3.23;;;22.20;72.70;;;;;;5001754;28;20415;-76
2023/01/05 11:58:32;;;;;;;4.50;3.17;;;22.20;72.80;;;;;;4995273;28;20440;-76
2023/01/05 12:01:19;;;;;;;3.17;2.63;;;22.10;72.50;;;;;;4992117;28;20489;-76
2023/01/05 12:03:55;;;;;;;4.30;3.17;;;22.00;72.60;;;;;;4994265;28;20456;-76
2023/01/05 12:06:31;;;;;;;3.10;2.80;;;21.90;72.30;;;;;;4994455;28;20499;-76
2023/01/05 12:09:03;;;;;;;7.33;3.60;;;22.20;73.70;;;;;;4996073;28;20472;-77
2023/01/05 12:11:35;;;;;;;5.13;3.37;;;22.30;72.40;;;;;;4990591;28;20535;-76
2023/01/05 12:14:10;;;;;;;5.73;3.50;;;22.40;73.00;;;;;;4991596;28;20512;-76
2023/01/05 12:16:45;;;;;;;7.07;3.50;;;22.70;73.40;;;;;;4994649;28;20453;-76
2023/01/05 12:19:31;;;;;;;5.53;2.93;;;22.70;71.80;;;;;;4990140;28;20452;-76
2023/01/05 12:22:24;;;;;;;5.53;3.30;;;22.70;71.20;;;;;;4994806;28;20457;-76
2023/01/05 12:24:58;;;;;;;4.30;2.57;;;22.50;71.00;;;;;;4988459;28;20456;-76
2023/01/05 12:27:33;;;;;;;7.87;3.03;;;22.30;70.90;;;;;;4990057;28;20445;-76
2023/01/05 12:30:08;;;;;;;6.47;3.13;;;22.20;71.20;;;;;;4995724;28;20473;-76
2023/01/05 12:33:07;;;;;;;9.47;3.00;;;22.10;71.10;;;;;;4992888;28;20449;-76
2023/01/05 12:36:06;;;;;;;8.97;3.77;;;22.00;71.20;;;;;;4990987;28;20535;-76
2023/01/05 12:38:40;;;;;;;5.27;2.77;;;22.10;71.50;;;;;;4991209;28;20537;-76
2023/01/05 12:41:32;;;;;;;4.83;3.00;;;22.00;71.20;;;;;;4992778;28;20472;-76
2023/01/05 12:44:42;;;;;;;6.17;2.87;;;22.00;71.40;;;;;;4979376;28;20428;-76
2023/01/05 12:47:26;;;;;;;3.97;2.87;;;22.20;72.40;;;;;;4973314;28;20986;-76
2023/01/05 12:49:57;;;;;;;3.67;2.90;;;22.70;72.60;;;;;;4989483;28;20500;-76
2023/01/05 12:52:27;;;;;;;3.27;2.97;;;23.20;72.50;;;;;;4995970;28;20553;-76
2023/01/05 12:54:58;;;;;;;3.20;2.70;;;23.60;71.70;;;;;;4994190;28;20457;-76
2023/01/05 12:57:27;;;;;;;4.77;3.90;;;24.10;71.10;;;;;;4997277;28;20449;-77
2023/01/05 12:59:59;;;;;;;5.77;3.13;;;24.50;70.00;;;;;;4994289;28;20450;-77
2023/01/05 13:02:31;;;;;;;4.00;2.93;;;24.70;69.70;;;;;;4992064;28;20419;-77
2023/01/05 13:05:02;;;;;;;4.50;3.40;;;24.90;68.60;;;;;;4993749;28;20451;-76
2023/01/05 13:07:31;;;;;;;4.60;2.80;;;25.10;68.20;;;;;;4990195;28;20475;-77
2023/01/05 13:10:00;;;;;;;4.00;2.90;;;25.30;67.60;;;;;;4993229;28;20499;-77
2023/01/05 13:12:31;;;;;;;3.50;3.20;;;25.40;66.90;;;;;;4993399;28;20427;-77
2023/01/05 13:15:06;;;;;;;6.47;3.27;;;25.60;66.50;;;;;;4994699;28;20438;-77
2023/01/05 13:17:34;;;;;;;3.83;3.37;;;25.80;66.00;;;;;;4990695;28;20453;-77
2023/01/05 13:20:04;;;;;;;5.27;3.30;;;25.90;65.50;;;;;;4989654;28;20444;-77
2023/01/05 13:22:33;;;;;;;3.03;2.60;;;26.00;65.10;;;;;;4990830;28;20456;-77
2023/01/05 13:25:03;;;;;;;3.90;2.93;;;26.10;64.60;;;;;;4993553;28;20435;-76
2023/01/05 13:27:31;;;;;;;3.47;2.90;;;26.30;64.40;;;;;;4991124;28;21041;-77
2023/01/05 13:30:00;;;;;;;2.90;2.60;;;26.30;64.00;;;;;;4992600;28;20467;-76
2023/01/05 13:32:41;;;;;;;4.40;2.40;;;26.40;63.60;;;;;;4995666;28;20461;-77
2023/01/05 13:35:28;;;;;;;3.23;2.90;;;26.40;63.40;;;;;;4995372;28;20578;-77
2023/01/05 13:38:36;;;;;;;5.47;3.10;;;26.40;63.20;;;;;;4993413;28;20457;-76